sensor_id;sensor_type;location;lat;lon;timestamp;P1;durP1;ratioP1;P2;durP2;ratioP2
5022;SDS011;2530;47.990;7.866;2023-10-19T00:00:35;3.27;;;2.47;;
5022;SDS011;2530;47.990;7.866;2023-10-19T00:03:09;5.50;;;2.90;;
5022;SDS011;2530;47.990;7.866;2023-10-19T00:05:38;3.55;;;2.40;;
5022;SDS011;2530;47.990;7.866;2023-10-19T00:08:05;2.25;;;2.05;;
5022;SDS011;2530;47.990;7.866;2023-10-19T00:10:43;3.15;;;2.58;;
5022;SDS011;2530;47.990;7.866;2023-10-19T00:13:14;3.20;;;2.90;;
5022;SDS011;2530;47.990;7.866;2023-10-19T00:15:41;4.80;;;3.10;;
5022;SDS011;2530;47.990;7.866;2023-10-19T00:18:13;5.38;;;3.90;;
5022;SDS011;2530;47.990;7.866;2023-10-19T00:20:42;6.22;;;3.78;;
5022;SDS011;2530;47.990;7.866;2023-10-19T00:23:21;4.90;;;4.25;;
5022;SDS011;2530;47.990;7.866;2023-10-19T00:26:00;5.40;;;3.90;;
5022;SDS011;2530;47.990;7.866;2023-10-19T00:28:33;5.63;;;3.80;;
5022;SDS011;2530;47.990;7.866;2023-10-19T00:31:00;4.20;;;3.80;;
5022;SDS011;2530;47.990;7.866;2023-10-19T00:33:29;6.20;;;4.13;;
5022;SDS011;2530;47.990;7.866;2023-10-19T00:35:59;6.20;;;4.07;;
5022;SDS011;2530;47.990;7.866;2023-10-19T00:38:41;4.63;;;4.23;;
5022;SDS011;2530;47.990;7.866;2023-10-19T00:41:18;5.95;;;4.20;;
5022;SDS011;2530;47.990;7.866;2023-10-19T00:43:47;6.30;;;5.70;;
5022;SDS011;2530;47.990;7.866;2023-10-19T00:46:22;6.53;;;5.85;;
5022;SDS011;2530;47.990;7.866;2023-10-19T00:48:55;5.80;;;5.30;;
5022;SDS011;2530;47.990;7.866;2023-10-19T00:51:25;6.00;;;5.38;;
5022;SDS011;2530;47.990;7.866;2023-10-19T00:54:35;6.97;;;6.00;;
5022;SDS011;2530;47.990;7.866;2023-10-19T00:56:57;6.03;;;5.35;;
5022;SDS011;2530;47.990;7.866;2023-10-19T00:59:29;5.70;;;4.95;;
5022;SDS011;2530;47.990;7.866;2023-10-19T01:01:55;5.53;;;4.63;;
5022;SDS011;2530;47.990;7.866;2023-10-19T01:04:40;5.97;;;5.47;;
5022;SDS011;2530;47.990;7.866;2023-10-19T01:07:08;7.22;;;6.50;;
5022;SDS011;2530;47.990;7.866;2023-10-19T01:09:42;7.97;;;7.18;;
5022;SDS011;2530;47.990;7.866;2023-10-19T01:12:09;7.35;;;6.65;;
5022;SDS011;2530;47.990;7.866;2023-10-19T01:15:06;7.97;;;7.18;;
5022;SDS011;2530;47.990;7.866;2023-10-19T01:17:43;7.07;;;6.47;;
5022;SDS011;2530;47.990;7.866;2023-10-19T01:20:14;8.27;;;7.47;;
5022;SDS011;2530;47.990;7.866;2023-10-19T01:22:59;8.10;;;7.40;;
5022;SDS011;2530;47.990;7.866;2023-10-19T01:25:54;8.30;;;7.55;;
5022;SDS011;2530;47.990;7.866;2023-10-19T01:28:23;8.88;;;7.28;;
5022;SDS011;2530;47.990;7.866;2023-10-19T01:31:13;7.70;;;6.90;;
5022;SDS011;2530;47.990;7.866;2023-10-19T01:33:47;7.55;;;6.85;;
5022;SDS011;2530;47.990;7.866;2023-10-19T01:36:13;8.10;;;7.40;;
5022;SDS011;2530;47.990;7.866;2023-10-19T01:38:39;6.95;;;6.35;;
5022;SDS011;2530;47.990;7.866;2023-10-19T01:41:06;8.07;;;6.50;;
5022;SDS011;2530;47.990;7.866;2023-10-19T01:43:42;8.30;;;6.35;;
5022;SDS011;2530;47.990;7.866;2023-10-19T01:46:08;6.95;;;6.35;;
5022;SDS011;2530;47.990;7.866;2023-10-19T01:48:41;9.10;;;6.00;;
5022;SDS011;2530;47.990;7.866;2023-10-19T01:51:08;6.30;;;5.60;;
5022;SDS011;2530;47.990;7.866;2023-10-19T01:53:35;7.43;;;6.10;;
5022;SDS011;2530;47.990;7.866;2023-10-19T01:56:04;7.30;;;6.25;;
5022;SDS011;2530;47.990;7.866;2023-10-19T01:58:34;7.03;;;5.65;;
5022;SDS011;2530;47.990;7.866;2023-10-19T02:01:01;6.13;;;5.50;;
5022;SDS011;2530;47.990;7.866;2023-10-19T02:03:42;5.80;;;5.20;;
5022;SDS011;2530;47.990;7.866;2023-10-19T02:06:09;5.55;;;5.05;;
5022;SDS011;2530;47.990;7.866;2023-10-19T02:08:45;5.78;;;5.28;;
5022;SDS011;2530;47.990;7.866;2023-10-19T02:11:16;5.13;;;4.63;;
5022;SDS011;2530;47.990;7.866;2023-10-19T02:13:45;5.80;;;5.20;;
5022;SDS011;2530;47.990;7.866;2023-10-19T02:16:17;6.38;;;4.68;;
5022;SDS011;2530;47.990;7.866;2023-10-19T02:18:47;4.90;;;4.40;;
5022;SDS011;2530;47.990;7.866;2023-10-19T02:21:16;6.20;;;4.30;;
5022;SDS011;2530;47.990;7.866;2023-10-19T02:23:47;5.85;;;4.65;;
5022;SDS011;2530;47.990;7.866;2023-10-19T02:26:22;5.60;;;4.20;;
5022;SDS011;2530;47.990;7.866;2023-10-19T02:28:50;5.50;;;4.50;;
5022;SDS011;2530;47.990;7.866;2023-10-19T02:31:16;6.65;;;4.32;;
5022;SDS011;2530;47.990;7.866;2023-10-19T02:33:47;4.25;;;3.90;;
5022;SDS011;2530;47.990;7.866;2023-10-19T02:36:32;6.28;;;4.05;;
5022;SDS011;2530;47.990;7.866;2023-10-19T02:38:59;4.00;;;3.60;;
5022;SDS011;2530;47.990;7.866;2023-10-19T02:41:32;5.30;;;4.15;;
5022;SDS011;2530;47.990;7.866;2023-10-19T02:44:00;4.50;;;4.10;;
5022;SDS011;2530;47.990;7.866;2023-10-19T02:46:29;5.70;;;4.03;;
5022;SDS011;2530;47.990;7.866;2023-10-19T02:48:56;4.00;;;3.60;;
5022;SDS011;2530;47.990;7.866;2023-10-19T02:51:29;4.72;;;3.80;;
5022;SDS011;2530;47.990;7.866;2023-10-19T02:53:55;4.85;;;3.47;;
5022;SDS011;2530;47.990;7.866;2023-10-19T02:56:22;4.50;;;3.60;;
5022;SDS011;2530;47.990;7.866;2023-10-19T02:58:51;4.17;;;3.60;;
5022;SDS011;2530;47.990;7.866;2023-10-19T03:01:20;4.37;;;3.70;;
5022;SDS011;2530;47.990;7.866;2023-10-19T03:03:54;4.00;;;3.60;;
5022;SDS011;2530;47.990;7.866;2023-10-19T03:06:23;4.90;;;3.60;;
5022;SDS011;2530;47.990;7.866;2023-10-19T03:08:49;4.15;;;3.40;;
5022;SDS011;2530;47.990;7.866;2023-10-19T03:11:25;4.72;;;3.70;;
5022;SDS011;2530;47.990;7.866;2023-10-19T03:13:54;4.47;;;3.67;;
5022;SDS011;2530;47.990;7.866;2023-10-19T03:16:22;3.63;;;3.33;;
5022;SDS011;2530;47.990;7.866;2023-10-19T03:18:48;5.60;;;3.78;;
5022;SDS011;2530;47.990;7.866;2023-10-19T03:21:15;5.78;;;3.70;;
5022;SDS011;2530;47.990;7.866;2023-10-19T03:23:41;4.03;;;3.53;;
5022;SDS011;2530;47.990;7.866;2023-10-19T03:26:07;5.37;;;3.27;;
5022;SDS011;2530;47.990;7.866;2023-10-19T03:28:43;4.03;;;3.33;;
5022;SDS011;2530;47.990;7.866;2023-10-19T03:31:10;5.32;;;3.70;;
5022;SDS011;2530;47.990;7.866;2023-10-19T03:33:42;4.15;;;3.25;;
5022;SDS011;2530;47.990;7.866;2023-10-19T03:36:15;4.28;;;3.10;;
5022;SDS011;2530;47.990;7.866;2023-10-19T03:38:41;3.63;;;3.22;;
5022;SDS011;2530;47.990;7.866;2023-10-19T03:41:08;3.30;;;2.80;;
5022;SDS011;2530;47.990;7.866;2023-10-19T03:43:34;4.07;;;3.67;;
5022;SDS011;2530;47.990;7.866;2023-10-19T03:46:05;4.18;;;3.40;;
5022;SDS011;2530;47.990;7.866;2023-10-19T03:48:36;4.00;;;3.20;;
5022;SDS011;2530;47.990;7.866;2023-10-19T03:51:03;3.20;;;2.90;;
5022;SDS011;2530;47.990;7.866;2023-10-19T03:53:30;3.45;;;2.75;;
5022;SDS011;2530;47.990;7.866;2023-10-19T03:55:56;3.38;;;2.75;;
5022;SDS011;2530;47.990;7.866;2023-10-19T03:58:22;3.20;;;2.90;;
5022;SDS011;2530;47.990;7.866;2023-10-19T04:00:48;3.50;;;3.20;;
5022;SDS011;2530;47.990;7.866;2023-10-19T04:03:14;2.65;;;2.45;;
5022;SDS011;2530;47.990;7.866;2023-10-19T04:05:42;3.85;;;3.00;;
5022;SDS011;2530;47.990;7.866;2023-10-19T04:08:11;2.83;;;2.40;;
5022;SDS011;2530;47.990;7.866;2023-10-19T04:10:39;4.13;;;2.67;;
5022;SDS011;2530;47.990;7.866;2023-10-19T04:13:09;2.95;;;2.50;;
5022;SDS011;2530;47.990;7.866;2023-10-19T04:15:36;3.90;;;2.53;;
5022;SDS011;2530;47.990;7.866;2023-10-19T04:18:02;2.90;;;2.57;;
5022;SDS011;2530;47.990;7.866;2023-10-19T04:20:35;3.00;;;2.80;;
5022;SDS011;2530;47.990;7.866;2023-10-19T04:23:23;4.10;;;2.53;;
5022;SDS011;2530;47.990;7.866;2023-10-19T04:25:52;3.10;;;2.40;;
5022;SDS011;2530;47.990;7.866;2023-10-19T04:28:28;2.90;;;2.60;;
5022;SDS011;2530;47.990;7.866;2023-10-19T04:31:02;4.88;;;2.50;;
5022;SDS011;2530;47.990;7.866;2023-10-19T04:33:29;5.10;;;2.50;;
5022;SDS011;2530;47.990;7.866;2023-10-19T04:35:55;3.35;;;2.00;;
5022;SDS011;2530;47.990;7.866;2023-10-19T04:38:22;2.90;;;2.50;;
5022;SDS011;2530;47.990;7.866;2023-10-19T04:40:48;3.75;;;2.10;;
5022;SDS011;2530;47.990;7.866;2023-10-19T04:43:13;3.97;;;2.78;;
5022;SDS011;2530;47.990;7.866;2023-10-19T04:45:39;4.50;;;2.50;;
5022;SDS011;2530;47.990;7.866;2023-10-19T04:48:10;2.97;;;2.78;;
5022;SDS011;2530;47.990;7.866;2023-10-19T04:50:36;5.10;;;2.85;;
5022;SDS011;2530;47.990;7.866;2023-10-19T04:53:01;3.00;;;2.80;;
5022;SDS011;2530;47.990;7.866;2023-10-19T04:55:28;3.27;;;2.90;;
5022;SDS011;2530;47.990;7.866;2023-10-19T04:57:55;3.53;;;2.75;;
5022;SDS011;2530;47.990;7.866;2023-10-19T05:00:21;3.95;;;2.83;;
5022;SDS011;2530;47.990;7.866;2023-10-19T05:02:49;5.70;;;3.20;;
5022;SDS011;2530;47.990;7.866;2023-10-19T05:05:16;3.10;;;2.80;;
5022;SDS011;2530;47.990;7.866;2023-10-19T05:07:42;2.50;;;2.30;;
5022;SDS011;2530;47.990;7.866;2023-10-19T05:10:08;3.60;;;2.73;;
5022;SDS011;2530;47.990;7.866;2023-10-19T05:12:34;3.67;;;2.70;;
5022;SDS011;2530;47.990;7.866;2023-10-19T05:14:59;3.15;;;2.78;;
5022;SDS011;2530;47.990;7.866;2023-10-19T05:17:25;3.90;;;2.72;;
5022;SDS011;2530;47.990;7.866;2023-10-19T05:19:52;3.40;;;3.10;;
5022;SDS011;2530;47.990;7.866;2023-10-19T05:22:17;4.50;;;3.30;;
5022;SDS011;2530;47.990;7.866;2023-10-19T05:24:43;3.37;;;3.07;;
5022;SDS011;2530;47.990;7.866;2023-10-19T05:27:09;4.00;;;3.20;;
5022;SDS011;2530;47.990;7.866;2023-10-19T05:29:35;5.43;;;3.20;;
5022;SDS011;2530;47.990;7.866;2023-10-19T05:32:01;5.72;;;3.38;;
5022;SDS011;2530;47.990;7.866;2023-10-19T05:34:28;4.50;;;3.05;;
5022;SDS011;2530;47.990;7.866;2023-10-19T05:36:59;3.30;;;3.00;;
5022;SDS011;2530;47.990;7.866;2023-10-19T05:39:27;3.50;;;3.20;;
5022;SDS011;2530;47.990;7.866;2023-10-19T05:41:56;3.28;;;2.97;;
5022;SDS011;2530;47.990;7.866;2023-10-19T05:44:25;4.18;;;2.70;;
5022;SDS011;2530;47.990;7.866;2023-10-19T05:46:51;5.70;;;3.63;;
5022;SDS011;2530;47.990;7.866;2023-10-19T05:49:17;5.07;;;3.38;;
5022;SDS011;2530;47.990;7.866;2023-10-19T05:51:43;5.27;;;3.50;;
5022;SDS011;2530;47.990;7.866;2023-10-19T05:54:09;4.53;;;3.15;;
5022;SDS011;2530;47.990;7.866;2023-10-19T05:56:35;3.50;;;2.60;;
5022;SDS011;2530;47.990;7.866;2023-10-19T05:59:01;4.68;;;2.97;;
5022;SDS011;2530;47.990;7.866;2023-10-19T06:01:27;4.55;;;2.83;;
5022;SDS011;2530;47.990;7.866;2023-10-19T06:03:52;4.55;;;2.78;;
5022;SDS011;2530;47.990;7.866;2023-10-19T06:06:19;3.60;;;2.67;;
5022;SDS011;2530;47.990;7.866;2023-10-19T06:08:45;3.00;;;2.80;;
5022;SDS011;2530;47.990;7.866;2023-10-19T06:11:10;4.97;;;3.07;;
5022;SDS011;2530;47.990;7.866;2023-10-19T06:13:36;3.80;;;2.90;;
5022;SDS011;2530;47.990;7.866;2023-10-19T06:16:01;5.47;;;2.90;;
5022;SDS011;2530;47.990;7.866;2023-10-19T06:18:27;3.78;;;2.92;;
5022;SDS011;2530;47.990;7.866;2023-10-19T06:20:54;4.80;;;3.00;;
5022;SDS011;2530;47.990;7.866;2023-10-19T06:23:20;4.60;;;3.00;;
5022;SDS011;2530;47.990;7.866;2023-10-19T06:25:45;3.63;;;2.97;;
5022;SDS011;2530;47.990;7.866;2023-10-19T06:28:11;2.83;;;2.53;;
5022;SDS011;2530;47.990;7.866;2023-10-19T06:30:37;2.80;;;2.60;;
5022;SDS011;2530;47.990;7.866;2023-10-19T06:33:03;3.40;;;2.50;;
5022;SDS011;2530;47.990;7.866;2023-10-19T06:35:32;3.13;;;2.80;;
5022;SDS011;2530;47.990;7.866;2023-10-19T06:37:59;6.03;;;2.53;;
5022;SDS011;2530;47.990;7.866;2023-10-19T06:40:25;4.80;;;2.72;;
5022;SDS011;2530;47.990;7.866;2023-10-19T06:42:51;3.30;;;2.63;;
5022;SDS011;2530;47.990;7.866;2023-10-19T06:45:20;4.20;;;2.60;;
5022;SDS011;2530;47.990;7.866;2023-10-19T06:47:47;5.17;;;2.40;;
5022;SDS011;2530;47.990;7.866;2023-10-19T06:50:14;2.80;;;2.60;;
5022;SDS011;2530;47.990;7.866;2023-10-19T06:52:44;3.22;;;2.50;;
5022;SDS011;2530;47.990;7.866;2023-10-19T06:55:11;3.55;;;2.40;;
5022;SDS011;2530;47.990;7.866;2023-10-19T06:57:45;5.93;;;2.50;;
5022;SDS011;2530;47.990;7.866;2023-10-19T07:00:13;3.00;;;2.40;;
5022;SDS011;2530;47.990;7.866;2023-10-19T07:02:43;2.78;;;2.50;;
5022;SDS011;2530;47.990;7.866;2023-10-19T07:05:12;3.70;;;2.20;;
5022;SDS011;2530;47.990;7.866;2023-10-19T07:07:43;3.10;;;2.80;;
5022;SDS011;2530;47.990;7.866;2023-10-19T07:10:10;2.83;;;2.40;;
5022;SDS011;2530;47.990;7.866;2023-10-19T07:12:37;3.13;;;2.38;;
5022;SDS011;2530;47.990;7.866;2023-10-19T07:15:05;2.10;;;1.90;;
5022;SDS011;2530;47.990;7.866;2023-10-19T07:17:32;3.20;;;2.30;;
5022;SDS011;2530;47.990;7.866;2023-10-19T07:19:59;3.47;;;2.30;;
5022;SDS011;2530;47.990;7.866;2023-10-19T07:22:25;4.03;;;2.13;;
5022;SDS011;2530;47.990;7.866;2023-10-19T07:24:51;2.77;;;1.93;;
5022;SDS011;2530;47.990;7.866;2023-10-19T07:27:16;3.85;;;2.10;;
5022;SDS011;2530;47.990;7.866;2023-10-19T07:29:45;2.60;;;2.00;;
5022;SDS011;2530;47.990;7.866;2023-10-19T07:32:10;4.40;;;2.10;;
5022;SDS011;2530;47.990;7.866;2023-10-19T07:34:38;2.40;;;2.00;;
5022;SDS011;2530;47.990;7.866;2023-10-19T07:37:04;2.40;;;2.10;;
5022;SDS011;2530;47.990;7.866;2023-10-19T07:39:32;2.35;;;2.08;;
5022;SDS011;2530;47.990;7.866;2023-10-19T07:41:58;2.22;;;1.90;;
5022;SDS011;2530;47.990;7.866;2023-10-19T07:44:24;2.35;;;2.10;;
5022;SDS011;2530;47.990;7.866;2023-10-19T07:46:50;2.83;;;1.90;;
5022;SDS011;2530;47.990;7.866;2023-10-19T07:49:16;2.00;;;1.80;;
5022;SDS011;2530;47.990;7.866;2023-10-19T07:51:45;4.40;;;2.10;;
5022;SDS011;2530;47.990;7.866;2023-10-19T07:54:11;2.80;;;2.20;;
5022;SDS011;2530;47.990;7.866;2023-10-19T07:56:37;2.30;;;2.10;;
5022;SDS011;2530;47.990;7.866;2023-10-19T07:59:04;2.53;;;1.92;;
5022;SDS011;2530;47.990;7.866;2023-10-19T08:01:29;3.10;;;2.15;;
5022;SDS011;2530;47.990;7.866;2023-10-19T08:03:55;3.90;;;2.10;;
5022;SDS011;2530;47.990;7.866;2023-10-19T08:06:21;2.40;;;1.60;;
5022;SDS011;2530;47.990;7.866;2023-10-19T08:08:46;1.70;;;1.60;;
5022;SDS011;2530;47.990;7.866;2023-10-19T08:11:12;1.98;;;1.60;;
5022;SDS011;2530;47.990;7.866;2023-10-19T08:13:38;1.90;;;1.80;;
5022;SDS011;2530;47.990;7.866;2023-10-19T08:16:04;3.67;;;2.60;;
5022;SDS011;2530;47.990;7.866;2023-10-19T08:18:32;2.90;;;1.70;;
5022;SDS011;2530;47.990;7.866;2023-10-19T08:21:00;3.08;;;1.80;;
5022;SDS011;2530;47.990;7.866;2023-10-19T08:23:26;4.05;;;2.00;;
5022;SDS011;2530;47.990;7.866;2023-10-19T08:25:52;3.58;;;1.80;;
5022;SDS011;2530;47.990;7.866;2023-10-19T08:28:19;4.13;;;3.13;;
5022;SDS011;2530;47.990;7.866;2023-10-19T08:30:45;2.10;;;1.90;;
5022;SDS011;2530;47.990;7.866;2023-10-19T08:33:21;3.38;;;1.90;;
5022;SDS011;2530;47.990;7.866;2023-10-19T08:35:48;2.60;;;1.83;;
5022;SDS011;2530;47.990;7.866;2023-10-19T08:38:14;3.17;;;2.07;;
5022;SDS011;2530;47.990;7.866;2023-10-19T08:40:39;4.40;;;2.10;;
5022;SDS011;2530;47.990;7.866;2023-10-19T08:43:05;2.50;;;2.10;;
5022;SDS011;2530;47.990;7.866;2023-10-19T08:45:32;3.10;;;2.53;;
5022;SDS011;2530;47.990;7.866;2023-10-19T08:48:00;3.88;;;2.88;;
5022;SDS011;2530;47.990;7.866;2023-10-19T08:50:27;3.67;;;2.47;;
5022;SDS011;2530;47.990;7.866;2023-10-19T08:52:54;3.05;;;2.40;;
5022;SDS011;2530;47.990;7.866;2023-10-19T08:55:22;5.40;;;2.70;;
5022;SDS011;2530;47.990;7.866;2023-10-19T08:57:48;3.00;;;2.20;;
5022;SDS011;2530;47.990;7.866;2023-10-19T09:00:16;4.35;;;2.10;;
5022;SDS011;2530;47.990;7.866;2023-10-19T09:02:44;3.92;;;2.13;;
5022;SDS011;2530;47.990;7.866;2023-10-19T09:05:09;2.33;;;2.03;;
5022;SDS011;2530;47.990;7.866;2023-10-19T09:07:45;3.80;;;2.30;;
5022;SDS011;2530;47.990;7.866;2023-10-19T09:10:19;3.40;;;2.40;;
5022;SDS011;2530;47.990;7.866;2023-10-19T09:15:27;2.60;;;2.40;;
5022;SDS011;2530;47.990;7.866;2023-10-19T09:17:55;2.90;;;2.70;;
5022;SDS011;2530;47.990;7.866;2023-10-19T09:20:21;2.30;;;2.10;;
5022;SDS011;2530;47.990;7.866;2023-10-19T09:22:55;4.60;;;1.90;;
5022;SDS011;2530;47.990;7.866;2023-10-19T09:25:23;4.25;;;2.38;;
5022;SDS011;2530;47.990;7.866;2023-10-19T09:27:49;3.50;;;2.30;;
5022;SDS011;2530;47.990;7.866;2023-10-19T09:30:16;2.50;;;2.28;;
5022;SDS011;2530;47.990;7.866;2023-10-19T09:32:47;2.58;;;1.80;;
5022;SDS011;2530;47.990;7.866;2023-10-19T09:35:14;3.00;;;2.15;;
5022;SDS011;2530;47.990;7.866;2023-10-19T09:37:43;2.55;;;2.10;;
5022;SDS011;2530;47.990;7.866;2023-10-19T09:40:09;2.27;;;2.07;;
5022;SDS011;2530;47.990;7.866;2023-10-19T09:42:42;4.80;;;2.08;;
5022;SDS011;2530;47.990;7.866;2023-10-19T09:45:13;3.17;;;2.30;;
5022;SDS011;2530;47.990;7.866;2023-10-19T09:47:46;2.60;;;2.40;;
5022;SDS011;2530;47.990;7.866;2023-10-19T09:50:15;3.97;;;2.30;;
5022;SDS011;2530;47.990;7.866;2023-10-19T09:52:41;3.13;;;2.30;;
5022;SDS011;2530;47.990;7.866;2023-10-19T10:00:56;4.00;;;2.67;;
5022;SDS011;2530;47.990;7.866;2023-10-19T10:06:17;2.45;;;2.25;;
5022;SDS011;2530;47.990;7.866;2023-10-19T10:08:53;4.90;;;2.40;;
5022;SDS011;2530;47.990;7.866;2023-10-19T10:11:24;3.20;;;2.07;;
5022;SDS011;2530;47.990;7.866;2023-10-19T10:13:55;2.78;;;2.45;;
5022;SDS011;2530;47.990;7.866;2023-10-19T10:16:28;2.47;;;2.27;;
5022;SDS011;2530;47.990;7.866;2023-10-19T10:18:58;2.30;;;1.80;;
5022;SDS011;2530;47.990;7.866;2023-10-19T10:21:25;3.10;;;2.00;;
5022;SDS011;2530;47.990;7.866;2023-10-19T10:23:55;3.90;;;2.60;;
5022;SDS011;2530;47.990;7.866;2023-10-19T10:26:23;2.47;;;2.28;;
5022;SDS011;2530;47.990;7.866;2023-10-19T10:31:35;2.60;;;2.40;;
5022;SDS011;2530;47.990;7.866;2023-10-19T10:34:08;2.72;;;2.25;;
5022;SDS011;2530;47.990;7.866;2023-10-19T10:39:27;2.50;;;1.80;;
5022;SDS011;2530;47.990;7.866;2023-10-19T10:41:55;2.20;;;1.83;;
5022;SDS011;2530;47.990;7.866;2023-10-19T10:44:34;3.40;;;1.98;;
5022;SDS011;2530;47.990;7.866;2023-10-19T10:47:01;1.95;;;1.70;;
5022;SDS011;2530;47.990;7.866;2023-10-19T10:49:26;2.97;;;1.80;;
5022;SDS011;2530;47.990;7.866;2023-10-19T10:51:53;2.00;;;1.70;;
5022;SDS011;2530;47.990;7.866;2023-10-19T10:54:21;2.83;;;1.40;;
5022;SDS011;2530;47.990;7.866;2023-10-19T10:56:46;2.50;;;1.60;;
5022;SDS011;2530;47.990;7.866;2023-10-19T10:59:13;2.17;;;1.70;;
5022;SDS011;2530;47.990;7.866;2023-10-19T11:01:39;1.65;;;1.55;;
5022;SDS011;2530;47.990;7.866;2023-10-19T11:04:10;2.60;;;1.60;;
5022;SDS011;2530;47.990;7.866;2023-10-19T11:09:17;2.92;;;1.88;;
5022;SDS011;2530;47.990;7.866;2023-10-19T11:11:46;2.50;;;1.60;;
5022;SDS011;2530;47.990;7.866;2023-10-19T11:14:14;1.73;;;1.30;;
5022;SDS011;2530;47.990;7.866;2023-10-19T11:16:40;2.53;;;1.87;;
5022;SDS011;2530;47.990;7.866;2023-10-19T11:19:05;2.97;;;1.90;;
5022;SDS011;2530;47.990;7.866;2023-10-19T11:21:31;3.00;;;1.90;;
5022;SDS011;2530;47.990;7.866;2023-10-19T11:23:56;1.97;;;1.50;;
5022;SDS011;2530;47.990;7.866;2023-10-19T11:26:23;3.23;;;1.80;;
5022;SDS011;2530;47.990;7.866;2023-10-19T11:28:58;3.15;;;1.70;;
5022;SDS011;2530;47.990;7.866;2023-10-19T11:31:25;2.35;;;1.50;;
5022;SDS011;2530;47.990;7.866;2023-10-19T11:33:53;1.90;;;1.30;;
5022;SDS011;2530;47.990;7.866;2023-10-19T11:36:23;1.50;;;1.40;;
5022;SDS011;2530;47.990;7.866;2023-10-19T11:38:50;1.45;;;1.35;;
5022;SDS011;2530;47.990;7.866;2023-10-19T11:41:16;2.20;;;1.60;;
5022;SDS011;2530;47.990;7.866;2023-10-19T11:43:44;2.83;;;1.60;;
5022;SDS011;2530;47.990;7.866;2023-10-19T11:46:10;2.30;;;1.42;;
5022;SDS011;2530;47.990;7.866;2023-10-19T11:48:37;2.22;;;1.70;;
5022;SDS011;2530;47.990;7.866;2023-10-19T11:51:04;1.52;;;1.42;;
5022;SDS011;2530;47.990;7.866;2023-10-19T11:53:34;2.03;;;1.30;;
5022;SDS011;2530;47.990;7.866;2023-10-19T11:56:08;1.77;;;1.50;;
5022;SDS011;2530;47.990;7.866;2023-10-19T11:58:34;2.13;;;1.40;;
5022;SDS011;2530;47.990;7.866;2023-10-19T12:01:02;2.20;;;1.50;;
5022;SDS011;2530;47.990;7.866;2023-10-19T12:03:30;2.23;;;1.90;;
5022;SDS011;2530;47.990;7.866;2023-10-19T12:05:56;2.50;;;2.10;;
5022;SDS011;2530;47.990;7.866;2023-10-19T12:08:22;1.80;;;1.70;;
5022;SDS011;2530;47.990;7.866;2023-10-19T12:10:48;3.25;;;1.23;;
5022;SDS011;2530;47.990;7.866;2023-10-19T12:13:15;2.23;;;1.50;;
5022;SDS011;2530;47.990;7.866;2023-10-19T12:15:41;4.43;;;2.45;;
5022;SDS011;2530;47.990;7.866;2023-10-19T12:18:16;4.00;;;2.00;;
5022;SDS011;2530;47.990;7.866;2023-10-19T12:20:42;0.95;;;0.70;;
5022;SDS011;2530;47.990;7.866;2023-10-19T12:23:10;1.00;;;0.90;;
5022;SDS011;2530;47.990;7.866;2023-10-19T12:25:36;1.30;;;1.00;;
5022;SDS011;2530;47.990;7.866;2023-10-19T12:28:03;0.70;;;0.50;;
5022;SDS011;2530;47.990;7.866;2023-10-19T12:30:29;0.60;;;0.47;;
5022;SDS011;2530;47.990;7.866;2023-10-19T12:33:01;1.40;;;0.60;;
5022;SDS011;2530;47.990;7.866;2023-10-19T12:35:37;1.52;;;0.70;;
5022;SDS011;2530;47.990;7.866;2023-10-19T12:38:22;0.70;;;0.52;;
5022;SDS011;2530;47.990;7.866;2023-10-19T12:40:48;1.00;;;0.60;;
5022;SDS011;2530;47.990;7.866;2023-10-19T12:43:15;1.33;;;0.77;;
5022;SDS011;2530;47.990;7.866;2023-10-19T12:45:47;1.20;;;0.60;;
5022;SDS011;2530;47.990;7.866;2023-10-19T12:48:18;0.63;;;0.52;;
5022;SDS011;2530;47.990;7.866;2023-10-19T12:50:44;0.80;;;0.60;;
5022;SDS011;2530;47.990;7.866;2023-10-19T12:53:10;0.80;;;0.60;;
5022;SDS011;2530;47.990;7.866;2023-10-19T12:55:36;0.80;;;0.70;;
5022;SDS011;2530;47.990;7.866;2023-10-19T12:58:04;0.80;;;0.70;;
5022;SDS011;2530;47.990;7.866;2023-10-19T13:00:34;0.80;;;0.65;;
5022;SDS011;2530;47.990;7.866;2023-10-19T13:03:04;1.50;;;0.70;;
5022;SDS011;2530;47.990;7.866;2023-10-19T13:05:33;0.80;;;0.60;;
5022;SDS011;2530;47.990;7.866;2023-10-19T13:08:00;1.50;;;0.70;;
5022;SDS011;2530;47.990;7.866;2023-10-19T13:10:29;0.70;;;0.60;;
5022;SDS011;2530;47.990;7.866;2023-10-19T13:12:57;2.10;;;0.80;;
5022;SDS011;2530;47.990;7.866;2023-10-19T13:15:33;0.90;;;0.80;;
5022;SDS011;2530;47.990;7.866;2023-10-19T13:18:03;1.85;;;0.98;;
5022;SDS011;2530;47.990;7.866;2023-10-19T13:20:31;1.38;;;0.90;;
5022;SDS011;2530;47.990;7.866;2023-10-19T13:23:07;1.10;;;0.60;;
5022;SDS011;2530;47.990;7.866;2023-10-19T13:25:45;0.80;;;0.60;;
5022;SDS011;2530;47.990;7.866;2023-10-19T13:28:23;1.00;;;0.60;;
5022;SDS011;2530;47.990;7.866;2023-10-19T13:30:52;0.60;;;0.50;;
5022;SDS011;2530;47.990;7.866;2023-10-19T13:33:18;1.48;;;0.90;;
5022;SDS011;2530;47.990;7.866;2023-10-19T13:35:49;0.60;;;0.40;;
5022;SDS011;2530;47.990;7.866;2023-10-19T13:38:16;1.10;;;0.70;;
5022;SDS011;2530;47.990;7.866;2023-10-19T13:40:44;1.30;;;0.60;;
5022;SDS011;2530;47.990;7.866;2023-10-19T13:43:11;1.10;;;0.60;;
5022;SDS011;2530;47.990;7.866;2023-10-19T13:45:41;1.90;;;0.70;;
5022;SDS011;2530;47.990;7.866;2023-10-19T13:48:10;1.63;;;0.80;;
5022;SDS011;2530;47.990;7.866;2023-10-19T13:50:55;1.33;;;0.70;;
5022;SDS011;2530;47.990;7.866;2023-10-19T13:53:41;1.50;;;0.90;;
5022;SDS011;2530;47.990;7.866;2023-10-19T13:56:07;1.00;;;0.80;;
5022;SDS011;2530;47.990;7.866;2023-10-19T13:58:36;1.50;;;0.73;;
5022;SDS011;2530;47.990;7.866;2023-10-19T14:01:05;0.85;;;0.70;;
5022;SDS011;2530;47.990;7.866;2023-10-19T14:03:32;1.77;;;0.82;;
5022;SDS011;2530;47.990;7.866;2023-10-19T14:05:57;1.30;;;1.00;;
5022;SDS011;2530;47.990;7.866;2023-10-19T14:08:23;1.00;;;0.90;;
5022;SDS011;2530;47.990;7.866;2023-10-19T14:10:49;1.20;;;1.10;;
5022;SDS011;2530;47.990;7.866;2023-10-19T14:13:15;1.92;;;1.00;;
5022;SDS011;2530;47.990;7.866;2023-10-19T14:15:41;1.80;;;1.00;;
5022;SDS011;2530;47.990;7.866;2023-10-19T14:18:07;1.40;;;1.10;;
5022;SDS011;2530;47.990;7.866;2023-10-19T14:20:33;0.82;;;0.82;;
5022;SDS011;2530;47.990;7.866;2023-10-19T14:22:59;1.15;;;1.00;;
5022;SDS011;2530;47.990;7.866;2023-10-19T14:25:26;2.70;;;1.52;;
5022;SDS011;2530;47.990;7.866;2023-10-19T14:27:58;1.20;;;1.00;;
5022;SDS011;2530;47.990;7.866;2023-10-19T14:30:24;1.50;;;1.00;;
5022;SDS011;2530;47.990;7.866;2023-10-19T14:32:53;1.57;;;1.47;;
5022;SDS011;2530;47.990;7.866;2023-10-19T14:35:19;1.40;;;1.30;;
5022;SDS011;2530;47.990;7.866;2023-10-19T14:37:50;2.90;;;1.50;;
5022;SDS011;2530;47.990;7.866;2023-10-19T14:40:17;1.90;;;1.10;;
5022;SDS011;2530;47.990;7.866;2023-10-19T14:42:48;1.38;;;1.20;;
5022;SDS011;2530;47.990;7.866;2023-10-19T14:45:16;1.20;;;1.10;;
5022;SDS011;2530;47.990;7.866;2023-10-19T14:47:46;1.20;;;1.10;;
5022;SDS011;2530;47.990;7.866;2023-10-19T14:50:13;2.80;;;1.80;;
5022;SDS011;2530;47.990;7.866;2023-10-19T14:52:43;2.50;;;1.60;;
5022;SDS011;2530;47.990;7.866;2023-10-19T14:55:13;2.15;;;1.80;;
5022;SDS011;2530;47.990;7.866;2023-10-19T14:57:41;2.83;;;2.20;;
5022;SDS011;2530;47.990;7.866;2023-10-19T15:00:09;2.60;;;1.92;;
5022;SDS011;2530;47.990;7.866;2023-10-19T15:02:51;2.20;;;1.50;;
5022;SDS011;2530;47.990;7.866;2023-10-19T15:05:20;4.90;;;1.67;;
5022;SDS011;2530;47.990;7.866;2023-10-19T15:07:47;2.45;;;1.75;;
5022;SDS011;2530;47.990;7.866;2023-10-19T15:10:17;2.95;;;1.60;;
5022;SDS011;2530;47.990;7.866;2023-10-19T15:12:47;3.17;;;1.85;;
5022;SDS011;2530;47.990;7.866;2023-10-19T15:15:13;4.53;;;2.17;;
5022;SDS011;2530;47.990;7.866;2023-10-19T15:17:48;2.00;;;1.80;;
5022;SDS011;2530;47.990;7.866;2023-10-19T15:20:26;2.55;;;1.90;;
5022;SDS011;2530;47.990;7.866;2023-10-19T15:22:55;2.00;;;1.90;;
5022;SDS011;2530;47.990;7.866;2023-10-19T15:25:21;2.40;;;1.60;;
5022;SDS011;2530;47.990;7.866;2023-10-19T15:27:49;1.80;;;1.50;;
5022;SDS011;2530;47.990;7.866;2023-10-19T15:30:16;2.60;;;2.25;;
5022;SDS011;2530;47.990;7.866;2023-10-19T15:32:46;2.73;;;1.77;;
5022;SDS011;2530;47.990;7.866;2023-10-19T15:35:13;5.15;;;1.60;;
5022;SDS011;2530;47.990;7.866;2023-10-19T15:37:46;2.60;;;1.80;;
5022;SDS011;2530;47.990;7.866;2023-10-19T15:40:13;2.20;;;1.85;;
5022;SDS011;2530;47.990;7.866;2023-10-19T15:42:39;2.20;;;2.00;;
5022;SDS011;2530;47.990;7.866;2023-10-19T15:45:07;3.40;;;2.35;;